Terminal Aerodrome Forecast
Issued by NWS

Home | Current Version | Previous Version | Text Only | Print | Product List | Glossary On
Versions: 1 2 3 4 5 6 7 8 9 10 11 12 13 14 15 16 17 18 19 20
000
FTUS44 KLZK 250520
TAFBPK
TAF
KBPK 250520Z 2506/2606 15006KT P6SM VCSH FEW008 SCT040
     FM250800 25005KT 5SM BR SCT005 SCT100 BKN250
      TEMPO 2509/2513 1SM BR BKN005 OVC030
     FM251500 17010KT P6SM VCTS SCT030CB BKN040=

USA.gov is the U.S. government's official web portal to all federal, state and local government web resources and services.